createdAt,value
2016-11-20T00:00:05.032Z,0
2016-11-20T00:01:04.938Z,0
2016-11-20T00:02:04.920Z,0
2016-11-20T00:03:04.920Z,0
2016-11-20T00:04:04.909Z,0
2016-11-20T00:05:04.903Z,0
2016-11-20T00:06:04.896Z,0
2016-11-20T00:07:04.898Z,0
2016-11-20T00:08:04.897Z,0
2016-11-20T00:09:05.126Z,0
2016-11-20T00:10:04.867Z,0
2016-11-20T00:11:04.881Z,0
2016-11-20T00:12:04.861Z,0
2016-11-20T00:13:04.855Z,0
2016-11-20T00:14:04.880Z,0
2016-11-20T00:15:04.888Z,0
2016-11-20T00:16:04.830Z,0
2016-11-20T00:17:04.826Z,0
2016-11-20T00:18:04.828Z,0
2016-11-20T00:19:04.827Z,0
2016-11-20T00:20:04.809Z,0
2016-11-20T00:21:04.799Z,0
2016-11-20T00:22:04.798Z,0
2016-11-20T00:23:04.797Z,0
2016-11-20T00:24:04.779Z,0
2016-11-20T00:25:04.770Z,0
2016-11-20T00:26:04.766Z,0
2016-11-20T00:27:04.749Z,0
2016-11-20T00:28:04.748Z,0
2016-11-20T00:29:04.750Z,0
2016-11-20T00:30:05.236Z,0
2016-11-20T00:31:04.728Z,0
2016-11-20T00:32:04.713Z,0
2016-11-20T00:33:04.718Z,0
2016-11-20T00:34:04.723Z,0
2016-11-20T00:35:04.699Z,0
2016-11-20T00:36:04.699Z,0
2016-11-20T00:37:04.685Z,0
2016-11-20T00:38:04.683Z,0
2016-11-20T00:39:04.673Z,0
2016-11-20T00:40:04.674Z,0
2016-11-20T00:41:04.658Z,0
2016-11-20T00:42:04.696Z,0
2016-11-20T00:43:04.660Z,0
2016-11-20T00:44:04.678Z,0
2016-11-20T00:45:04.742Z,0
2016-11-20T00:46:04.634Z,0
2016-11-20T00:47:04.637Z,0
2016-11-20T00:48:04.621Z,0
2016-11-20T00:49:04.601Z,0
2016-11-20T00:50:04.597Z,0
2016-11-20T00:51:04.599Z,0
2016-11-20T00:52:04.943Z,0
2016-11-20T00:53:04.579Z,0
2016-11-20T00:54:04.594Z,0
2016-11-20T00:55:04.564Z,0
2016-11-20T00:56:04.566Z,0
2016-11-20T00:57:04.555Z,0
2016-11-20T00:58:04.548Z,0
2016-11-20T00:59:04.864Z,0
2016-11-20T01:00:04.683Z,0
2016-11-20T01:01:04.526Z,0
2016-11-20T01:02:04.532Z,0
2016-11-20T01:03:04.518Z,0
2016-11-20T01:04:04.539Z,0
2016-11-20T01:05:04.516Z,0
2016-11-20T01:06:04.785Z,0
2016-11-20T01:07:04.484Z,0
2016-11-20T01:08:04.475Z,0
2016-11-20T01:09:05.102Z,0
2016-11-20T01:10:04.463Z,0
2016-11-20T01:11:04.457Z,0
2016-11-20T01:12:04.456Z,0
2016-11-20T01:13:04.455Z,0
2016-11-20T01:14:04.445Z,0
2016-11-20T01:15:04.886Z,0
2016-11-20T01:16:05.970Z,0
2016-11-20T01:17:04.778Z,0
2016-11-20T01:18:04.750Z,0
2016-11-20T01:19:04.415Z,0
2016-11-20T01:20:04.425Z,0
2016-11-20T01:21:04.392Z,0
2016-11-20T01:22:04.396Z,0
2016-11-20T01:23:04.394Z,0
2016-11-20T01:24:04.383Z,0
2016-11-20T01:25:04.369Z,0
2016-11-20T01:26:04.355Z,0
2016-11-20T01:27:04.351Z,0
2016-11-20T01:28:04.348Z,0
2016-11-20T01:29:04.341Z,0
2016-11-20T01:30:04.601Z,0
2016-11-20T01:31:04.643Z,0
2016-11-20T01:32:04.324Z,0
2016-11-20T01:33:04.314Z,0
2016-11-20T01:34:04.316Z,0
2016-11-20T01:35:04.304Z,0
2016-11-20T01:36:04.297Z,0
2016-11-20T01:37:04.305Z,0
2016-11-20T01:38:04.294Z,0
2016-11-20T01:39:04.284Z,0
2016-11-20T01:40:04.295Z,0
2016-11-20T01:41:04.294Z,0
2016-11-20T01:42:04.258Z,0
2016-11-20T01:43:04.246Z,0
2016-11-20T01:44:04.256Z,0
2016-11-20T01:45:04.335Z,0
2016-11-20T01:46:04.238Z,0
2016-11-20T01:47:04.227Z,0
2016-11-20T01:48:04.227Z,0
2016-11-20T01:49:04.229Z,0
2016-11-20T01:50:04.222Z,0
2016-11-20T01:51:04.194Z,0
2016-11-20T01:52:04.186Z,0
2016-11-20T01:53:04.179Z,0
2016-11-20T01:54:04.176Z,0
2016-11-20T01:55:04.170Z,0
2016-11-20T01:56:04.169Z,0
2016-11-20T01:57:04.155Z,0
2016-11-20T01:58:04.155Z,0
2016-11-20T01:59:04.150Z,0
2016-11-20T02:00:04.144Z,0
2016-11-20T02:01:04.133Z,0
2016-11-20T02:02:04.409Z,0
2016-11-20T02:03:04.431Z,0
2016-11-20T02:04:04.106Z,0
2016-11-20T02:05:04.103Z,0
2016-11-20T02:06:04.131Z,0
2016-11-20T02:07:04.096Z,0
2016-11-20T02:08:04.115Z,0
2016-11-20T02:09:04.078Z,0
2016-11-20T02:10:04.067Z,0
2016-11-20T02:11:04.061Z,0
2016-11-20T02:12:04.054Z,0
2016-11-20T02:13:04.370Z,0
2016-11-20T02:14:04.040Z,0
2016-11-20T02:15:04.055Z,0
2016-11-20T02:16:04.369Z,0
2016-11-20T02:17:04.029Z,0
2016-11-20T02:18:04.414Z,0
2016-11-20T02:19:04.637Z,0
2016-11-20T02:20:04.021Z,0
2016-11-20T02:21:04.010Z,0
2016-11-20T02:22:04.011Z,0
2016-11-20T02:23:03.997Z,0
2016-11-20T02:24:03.974Z,0
2016-11-20T02:25:03.971Z,0
2016-11-20T02:26:03.974Z,0
2016-11-20T02:27:03.956Z,0
2016-11-20T02:28:03.945Z,0
2016-11-20T02:29:03.945Z,0
2016-11-20T02:30:03.958Z,0
2016-11-20T02:31:04.327Z,0
2016-11-20T02:32:03.928Z,0
2016-11-20T02:33:03.932Z,0
2016-11-20T02:34:03.908Z,0
2016-11-20T02:35:03.896Z,0
2016-11-20T02:36:03.895Z,0
2016-11-20T02:37:03.893Z,0
2016-11-20T02:38:03.891Z,0
2016-11-20T02:39:03.871Z,0
2016-11-20T02:40:03.869Z,0
2016-11-20T02:41:03.875Z,0
2016-11-20T02:42:03.859Z,0
2016-11-20T02:43:03.873Z,0
2016-11-20T02:44:03.840Z,0
2016-11-20T02:45:03.829Z,0
2016-11-20T02:46:04.124Z,0
2016-11-20T02:47:03.819Z,0
2016-11-20T02:48:03.811Z,0
2016-11-20T02:49:03.807Z,0
2016-11-20T02:50:03.798Z,0
2016-11-20T02:51:03.791Z,0
2016-11-20T02:52:03.783Z,0
2016-11-20T02:53:04.095Z,0
2016-11-20T02:54:03.762Z,0
2016-11-20T02:55:03.756Z,0
2016-11-20T02:56:03.753Z,0
2016-11-20T02:57:03.750Z,0
2016-11-20T02:58:03.740Z,0
2016-11-20T02:59:03.739Z,0
2016-11-20T03:00:04.032Z,0
2016-11-20T03:01:04.078Z,0
2016-11-20T03:02:03.706Z,0
2016-11-20T03:03:03.708Z,0
2016-11-20T03:04:03.696Z,0
2016-11-20T03:05:03.691Z,0
2016-11-20T03:06:03.924Z,0
2016-11-20T03:07:03.671Z,0
2016-11-20T03:08:03.674Z,0
2016-11-20T03:09:03.662Z,0
2016-11-20T03:10:03.977Z,0
2016-11-20T03:11:03.648Z,0
2016-11-20T03:12:03.645Z,0
2016-11-20T03:13:03.645Z,0
2016-11-20T03:14:03.624Z,0
2016-11-20T03:15:03.625Z,0
2016-11-20T03:16:03.664Z,0
2016-11-20T03:17:03.606Z,0
2016-11-20T03:18:03.597Z,0
2016-11-20T03:19:03.592Z,0
2016-11-20T03:20:03.586Z,0
2016-11-20T03:21:03.579Z,0
2016-11-20T03:22:03.572Z,0
2016-11-20T03:23:03.574Z,0
2016-11-20T03:24:03.563Z,0
2016-11-20T03:25:03.557Z,0
2016-11-20T03:26:03.542Z,0
2016-11-20T03:27:03.543Z,0
2016-11-20T03:28:03.532Z,0
2016-11-20T03:29:03.524Z,0
2016-11-20T03:30:03.521Z,0
2016-11-20T03:31:03.760Z,0
2016-11-20T03:32:03.510Z,0
2016-11-20T03:33:03.513Z,0
2016-11-20T03:34:03.508Z,0
2016-11-20T03:35:03.505Z,0
2016-11-20T03:36:03.485Z,0
2016-11-20T03:37:03.493Z,0
2016-11-20T03:38:03.513Z,0
2016-11-20T03:39:03.471Z,0
2016-11-20T03:40:03.473Z,0
2016-11-20T03:41:03.756Z,0
2016-11-20T03:42:03.479Z,0
2016-11-20T03:43:03.447Z,0
2016-11-20T03:44:03.432Z,0
2016-11-20T03:45:03.727Z,0
2016-11-20T03:46:03.476Z,0
2016-11-20T03:47:03.421Z,0
2016-11-20T03:48:03.393Z,0
2016-11-20T03:49:03.390Z,0
2016-11-20T03:50:03.384Z,0
2016-11-20T03:51:03.628Z,0
2016-11-20T03:52:03.614Z,0
2016-11-20T03:53:03.405Z,0
2016-11-20T03:54:03.369Z,0
2016-11-20T03:55:03.348Z,0
2016-11-20T03:56:03.340Z,0
2016-11-20T03:57:03.345Z,0
2016-11-20T03:58:03.323Z,0
2016-11-20T03:59:03.320Z,0
2016-11-20T04:00:03.311Z,0
2016-11-20T04:01:03.308Z,0
2016-11-20T04:02:03.302Z,0
2016-11-20T04:03:03.290Z,0
2016-11-20T04:04:03.287Z,0
2016-11-20T04:05:03.292Z,0
2016-11-20T04:06:03.287Z,0
2016-11-20T04:07:03.275Z,0
2016-11-20T04:08:03.290Z,0
2016-11-20T04:09:03.250Z,0
2016-11-20T04:10:03.246Z,0
2016-11-20T04:11:03.239Z,0
2016-11-20T04:12:03.237Z,0
2016-11-20T04:13:03.237Z,0
2016-11-20T04:14:03.219Z,0
2016-11-20T04:15:03.253Z,0
2016-11-20T04:16:03.221Z,0
2016-11-20T04:17:03.197Z,0
2016-11-20T04:18:03.191Z,0
2016-11-20T04:19:03.195Z,0
2016-11-20T04:20:03.177Z,0
2016-11-20T04:21:03.173Z,0
2016-11-20T04:22:03.173Z,0
2016-11-20T04:23:03.474Z,0
2016-11-20T04:24:03.154Z,0
2016-11-20T04:25:03.391Z,0
2016-11-20T04:26:03.139Z,0
2016-11-20T04:27:03.133Z,0
2016-11-20T04:28:03.126Z,0
2016-11-20T04:29:03.122Z,0
2016-11-20T04:30:03.115Z,0
2016-11-20T04:31:03.119Z,0
2016-11-20T04:32:03.185Z,0
2016-11-20T04:33:03.343Z,0
2016-11-20T04:34:03.097Z,0
2016-11-20T04:35:03.103Z,0
2016-11-20T04:36:03.087Z,0
2016-11-20T04:37:03.069Z,0
2016-11-20T04:38:03.066Z,0
2016-11-20T04:39:03.056Z,0
2016-11-20T04:40:03.363Z,0
2016-11-20T04:41:03.044Z,0
2016-11-20T04:42:03.049Z,0
2016-11-20T04:43:03.044Z,0
2016-11-20T04:44:03.028Z,0
2016-11-20T04:45:03.047Z,0
2016-11-20T04:46:03.016Z,0
2016-11-20T04:47:03.058Z,0
2016-11-20T04:48:03.001Z,0
2016-11-20T04:49:02.993Z,0
2016-11-20T04:50:02.990Z,0
2016-11-20T04:51:03.288Z,0
2016-11-20T04:52:02.982Z,0
2016-11-20T04:53:03.007Z,0
2016-11-20T04:54:02.973Z,0
2016-11-20T04:55:02.954Z,0
2016-11-20T04:56:02.951Z,0
2016-11-20T04:57:02.943Z,0
2016-11-20T04:58:02.941Z,0
2016-11-20T04:59:02.932Z,0
2016-11-20T05:00:02.928Z,0
2016-11-20T05:01:02.946Z,0
2016-11-20T05:02:03.166Z,0
2016-11-20T05:03:02.919Z,0
2016-11-20T05:04:02.897Z,0
2016-11-20T05:05:02.917Z,0
2016-11-20T05:06:02.886Z,0
2016-11-20T05:07:02.882Z,0
2016-11-20T05:08:02.876Z,0
2016-11-20T05:09:02.868Z,0
2016-11-20T05:10:02.864Z,0
2016-11-20T05:11:02.849Z,0
2016-11-20T05:12:02.854Z,0
2016-11-20T05:13:02.854Z,0
2016-11-20T05:14:02.874Z,0
2016-11-20T05:15:02.833Z,0
2016-11-20T05:16:02.820Z,0
2016-11-20T05:17:03.221Z,0
2016-11-20T05:18:02.820Z,0
2016-11-20T05:19:02.810Z,0
2016-11-20T05:20:02.797Z,0
2016-11-20T05:21:02.810Z,0
2016-11-20T05:22:02.816Z,0
2016-11-20T05:23:02.781Z,0
2016-11-20T05:24:02.769Z,0
2016-11-20T05:25:02.774Z,0
2016-11-20T05:26:02.750Z,0
2016-11-20T05:27:03.068Z,0
2016-11-20T05:28:02.776Z,0
2016-11-20T05:29:02.731Z,0
2016-11-20T05:30:02.727Z,0
2016-11-20T05:31:02.726Z,0
2016-11-20T05:32:02.913Z,0
2016-11-20T05:33:02.706Z,0
2016-11-20T05:34:02.697Z,0
2016-11-20T05:35:02.692Z,0
2016-11-20T05:36:02.686Z,0
2016-11-20T05:37:02.681Z,0
2016-11-20T05:38:02.916Z,0
2016-11-20T05:39:02.673Z,0
2016-11-20T05:40:02.659Z,0
2016-11-20T05:41:02.650Z,0
2016-11-20T05:42:02.643Z,0
2016-11-20T05:43:02.634Z,0
2016-11-20T05:44:02.644Z,0
2016-11-20T05:45:02.623Z,0
2016-11-20T05:46:02.632Z,0
2016-11-20T05:47:02.779Z,0
2016-11-20T05:48:02.616Z,0
2016-11-20T05:49:02.599Z,0
2016-11-20T05:50:02.602Z,0
2016-11-20T05:51:02.587Z,0
2016-11-20T05:52:02.596Z,0
2016-11-20T05:53:02.568Z,0
2016-11-20T05:54:02.581Z,0
2016-11-20T05:55:02.567Z,0
2016-11-20T05:56:02.559Z,0
2016-11-20T05:57:02.544Z,0
2016-11-20T05:58:02.539Z,0
2016-11-20T05:59:02.541Z,0
2016-11-20T06:00:02.531Z,0
2016-11-20T06:01:02.842Z,0
2016-11-20T06:02:02.882Z,0
2016-11-20T06:03:02.512Z,0
2016-11-20T06:04:02.497Z,0
2016-11-20T06:05:02.492Z,0
2016-11-20T06:06:02.490Z,0
2016-11-20T06:07:02.473Z,0
2016-11-20T06:08:02.468Z,0
2016-11-20T06:09:02.472Z,0
2016-11-20T06:10:02.448Z,4
2016-11-20T06:11:02.442Z,4
2016-11-20T06:12:02.443Z,4
2016-11-20T06:13:02.424Z,4
2016-11-20T06:14:02.738Z,4
2016-11-20T06:15:02.422Z,4
2016-11-20T06:16:02.720Z,8
2016-11-20T06:17:02.391Z,4
2016-11-20T06:18:02.428Z,8
2016-11-20T06:19:02.379Z,8
2016-11-20T06:20:02.385Z,8
2016-11-20T06:21:02.373Z,12
2016-11-20T06:22:02.370Z,12
2016-11-20T06:23:02.369Z,16
2016-11-20T06:24:02.341Z,20
2016-11-20T06:25:02.337Z,24
2016-11-20T06:26:02.582Z,28
2016-11-20T06:27:02.326Z,32
2016-11-20T06:28:02.316Z,32
2016-11-20T06:29:02.310Z,40
2016-11-20T06:30:02.307Z,48
2016-11-20T06:31:02.292Z,56
2016-11-20T06:32:02.295Z,64
2016-11-20T06:33:02.277Z,72
2016-11-20T06:34:02.288Z,80
2016-11-20T06:35:02.272Z,92
2016-11-20T06:36:02.269Z,104
2016-11-20T06:37:02.265Z,112
2016-11-20T06:38:02.239Z,128
2016-11-20T06:39:02.251Z,140
2016-11-20T06:40:02.244Z,156
2016-11-20T06:41:02.464Z,164
2016-11-20T06:42:02.208Z,180
2016-11-20T06:43:02.200Z,196
2016-11-20T06:44:02.216Z,216
2016-11-20T06:45:02.203Z,236
2016-11-20T06:46:02.427Z,260
2016-11-20T06:47:02.181Z,280
2016-11-20T06:48:02.214Z,308
2016-11-20T06:49:02.189Z,332
2016-11-20T06:50:02.152Z,356
2016-11-20T06:51:02.152Z,384
2016-11-20T06:52:02.138Z,416
2016-11-20T06:53:02.143Z,440
2016-11-20T06:54:02.133Z,472
2016-11-20T06:55:02.131Z,496
2016-11-20T06:56:02.107Z,524
2016-11-20T06:57:02.101Z,552
2016-11-20T06:58:02.089Z,584
2016-11-20T06:59:02.085Z,608
2016-11-20T07:00:02.076Z,640
2016-11-20T07:01:02.069Z,668
2016-11-20T07:02:02.065Z,700
2016-11-20T07:03:02.285Z,724
2016-11-20T07:04:02.063Z,756
2016-11-20T07:05:02.066Z,788
2016-11-20T07:06:02.032Z,820
2016-11-20T07:07:02.037Z,852
2016-11-20T07:08:02.022Z,884
2016-11-20T07:09:02.014Z,912
2016-11-20T07:10:02.259Z,944
2016-11-20T07:11:02.001Z,976
2016-11-20T07:12:01.996Z,1008
2016-11-20T07:13:01.995Z,1040
2016-11-20T07:14:01.977Z,1076
2016-11-20T07:15:01.980Z,1108
2016-11-20T07:16:02.219Z,1148
2016-11-20T07:17:01.964Z,1204
2016-11-20T07:18:02.049Z,1228
2016-11-20T07:19:02.191Z,1264
2016-11-20T07:20:01.943Z,1308
2016-11-20T07:21:01.928Z,1348
2016-11-20T07:22:01.923Z,1384
2016-11-20T07:23:01.923Z,1424
2016-11-20T07:24:02.154Z,1456
2016-11-20T07:25:01.943Z,1472
2016-11-20T07:26:01.894Z,1480
2016-11-20T07:27:01.885Z,1512
2016-11-20T07:28:02.129Z,1548
2016-11-20T07:29:01.870Z,1580
2016-11-20T07:30:01.881Z,1612
2016-11-20T07:31:01.862Z,1640
2016-11-20T07:32:01.849Z,1656
2016-11-20T07:33:01.898Z,1668
2016-11-20T07:34:01.846Z,1716
2016-11-20T07:35:01.841Z,1768
2016-11-20T07:36:01.827Z,1860
2016-11-20T07:37:01.820Z,1880
2016-11-20T07:38:01.821Z,1860
2016-11-20T07:39:01.808Z,1848
2016-11-20T07:40:01.811Z,1888
2016-11-20T07:41:01.789Z,1876
2016-11-20T07:42:01.789Z,1872
2016-11-20T07:43:01.776Z,1888
2016-11-20T07:44:01.771Z,1920
2016-11-20T07:45:01.763Z,1944
2016-11-20T07:46:01.761Z,1976
2016-11-20T07:47:01.752Z,2008
2016-11-20T07:48:01.808Z,2056
2016-11-20T07:49:01.743Z,2064
2016-11-20T07:50:01.732Z,2096
2016-11-20T07:51:01.731Z,2120
2016-11-20T07:52:01.726Z,2172
2016-11-20T07:53:01.714Z,2200
2016-11-20T07:54:01.708Z,2224
2016-11-20T07:55:01.707Z,2276
2016-11-20T07:56:01.696Z,2332
2016-11-20T07:57:01.688Z,2348
2016-11-20T07:58:01.680Z,2376
2016-11-20T07:59:01.679Z,2408
2016-11-20T08:00:01.674Z,2412
2016-11-20T08:01:01.662Z,2444
2016-11-20T08:02:01.661Z,2452
2016-11-20T08:03:01.750Z,2484
2016-11-20T08:04:01.637Z,2492
2016-11-20T08:05:01.635Z,2536
2016-11-20T08:06:01.635Z,2524
2016-11-20T08:07:01.636Z,2560
2016-11-20T08:08:01.637Z,2616
2016-11-20T08:09:01.619Z,2656
2016-11-20T08:10:01.606Z,2720
2016-11-20T08:11:01.598Z,2740
2016-11-20T08:12:01.597Z,2772
2016-11-20T08:13:01.592Z,2836
2016-11-20T08:14:01.588Z,2976
2016-11-20T08:15:01.579Z,3168
2016-11-20T08:16:01.569Z,3208
2016-11-20T08:17:01.592Z,3176
2016-11-20T08:18:01.675Z,3184
2016-11-20T08:19:01.549Z,3180
2016-11-20T08:20:01.542Z,3276
2016-11-20T08:21:01.540Z,3272
2016-11-20T08:22:01.533Z,3244
2016-11-20T08:23:01.521Z,3136
2016-11-20T08:24:01.522Z,3204
2016-11-20T08:25:01.523Z,3332
2016-11-20T08:26:01.513Z,3464
2016-11-20T08:27:01.506Z,3596
2016-11-20T08:28:01.511Z,3596
2016-11-20T08:29:01.508Z,3740
2016-11-20T08:30:01.485Z,3776
2016-11-20T08:31:01.472Z,3712
2016-11-20T08:32:01.462Z,3584
2016-11-20T08:33:01.467Z,3632
2016-11-20T08:34:01.457Z,3868
2016-11-20T08:35:01.699Z,4192
2016-11-20T08:36:01.466Z,4260
2016-11-20T08:37:01.465Z,4328
2016-11-20T08:38:01.451Z,4368
2016-11-20T08:39:01.451Z,4320
2016-11-20T08:40:01.424Z,4444
2016-11-20T08:41:01.409Z,4532
2016-11-20T08:42:01.401Z,4512
2016-11-20T08:43:01.399Z,4672
2016-11-20T08:44:01.401Z,4604
2016-11-20T08:45:01.382Z,4660
2016-11-20T08:46:01.383Z,4744
2016-11-20T08:47:01.378Z,4892
2016-11-20T08:48:01.412Z,4864
2016-11-20T08:49:01.423Z,4904
2016-11-20T08:50:01.372Z,5208
2016-11-20T08:51:01.350Z,5196
2016-11-20T08:52:01.347Z,5296
2016-11-20T08:53:01.342Z,5208
2016-11-20T08:54:01.336Z,5300
2016-11-20T08:55:01.359Z,5304
2016-11-20T08:56:01.349Z,5336
2016-11-20T08:57:01.324Z,5284
2016-11-20T08:58:01.559Z,5076
2016-11-20T08:59:01.314Z,5232
2016-11-20T09:00:01.303Z,5236
2016-11-20T09:01:01.300Z,5220
2016-11-20T09:02:01.296Z,5204
2016-11-20T09:03:01.329Z,5152
2016-11-20T09:04:02.046Z,5096
2016-11-20T09:05:01.276Z,4856
2016-11-20T09:06:01.275Z,4916
2016-11-20T09:07:01.282Z,5168
2016-11-20T09:08:01.262Z,4996
2016-11-20T09:09:01.261Z,4956
2016-11-20T09:10:01.259Z,4856
2016-11-20T09:11:01.259Z,4752
2016-11-20T09:12:01.262Z,5016
2016-11-20T09:13:01.257Z,5012
2016-11-20T09:14:01.268Z,5032
2016-11-20T09:15:01.229Z,4976
2016-11-20T09:16:01.225Z,5104
2016-11-20T09:17:01.222Z,5132
2016-11-20T09:18:01.539Z,5148
2016-11-20T09:19:01.610Z,5152
2016-11-20T09:20:01.241Z,5220
2016-11-20T09:21:01.206Z,5196
2016-11-20T09:22:01.209Z,5220
2016-11-20T09:23:01.204Z,5212
2016-11-20T09:24:01.208Z,5232
2016-11-20T09:25:01.576Z,5236
2016-11-20T09:26:01.179Z,5188
2016-11-20T09:27:01.179Z,5172
2016-11-20T09:28:01.171Z,5160
2016-11-20T09:29:01.204Z,5160
2016-11-20T09:30:01.176Z,5076
2016-11-20T09:31:01.161Z,4844
2016-11-20T09:32:01.153Z,4964
2016-11-20T09:33:01.152Z,5268
2016-11-20T09:34:01.545Z,5292
2016-11-20T09:35:01.144Z,5072
2016-11-20T09:36:01.144Z,5208
2016-11-20T09:37:01.134Z,5244
2016-11-20T09:38:01.144Z,5228
2016-11-20T09:39:01.132Z,5264
2016-11-20T09:40:01.127Z,5308
2016-11-20T09:41:01.115Z,5328
2016-11-20T09:42:01.117Z,5316
2016-11-20T09:43:01.116Z,4972
2016-11-20T09:44:01.106Z,5040
2016-11-20T09:45:01.101Z,4772
2016-11-20T09:46:01.096Z,4896
2016-11-20T09:47:01.093Z,4996
2016-11-20T09:48:01.093Z,5112
2016-11-20T09:49:01.133Z,5120
2016-11-20T09:50:01.098Z,5176
2016-11-20T09:51:01.163Z,5464
2016-11-20T09:52:01.076Z,5436
2016-11-20T09:53:01.072Z,5544
2016-11-20T09:54:01.383Z,5664
2016-11-20T09:55:01.362Z,5736
2016-11-20T09:56:01.065Z,5832
2016-11-20T09:57:01.049Z,5892
2016-11-20T09:58:01.054Z,6004
2016-11-20T09:59:01.053Z,6080
2016-11-20T10:00:01.051Z,6080
2016-11-20T10:01:01.038Z,6104
2016-11-20T10:02:01.034Z,6080
2016-11-20T10:03:01.032Z,6060
2016-11-20T10:04:01.285Z,6036
2016-11-20T10:05:01.029Z,6028
2016-11-20T10:06:01.019Z,6020
2016-11-20T10:07:01.021Z,5984
2016-11-20T10:08:01.024Z,5940
2016-11-20T10:09:01.321Z,5908
2016-11-20T10:10:01.008Z,5892
2016-11-20T10:11:01.001Z,5892
2016-11-20T10:12:01.005Z,5932
2016-11-20T10:13:01.000Z,5944
2016-11-20T10:14:00.996Z,5996
2016-11-20T10:15:00.989Z,6032
2016-11-20T10:16:00.991Z,6048
2016-11-20T10:17:00.986Z,6092
2016-11-20T10:18:00.986Z,6096
2016-11-20T10:19:01.028Z,6108
2016-11-20T10:20:00.982Z,6024
2016-11-20T10:21:00.970Z,6132
2016-11-20T10:22:00.994Z,6348
2016-11-20T10:23:02.115Z,6512
2016-11-20T10:24:01.000Z,6568
2016-11-20T10:25:00.973Z,6672
2016-11-20T10:26:00.953Z,6824
2016-11-20T10:27:00.953Z,6988
2016-11-20T10:28:00.984Z,7144
2016-11-20T10:29:00.947Z,7240
2016-11-20T10:30:00.950Z,7260
2016-11-20T10:31:01.189Z,7256
2016-11-20T10:32:00.975Z,7212
2016-11-20T10:33:00.938Z,7400
2016-11-20T10:34:00.991Z,7512
2016-11-20T10:35:00.933Z,7564
2016-11-20T10:36:00.935Z,7552
2016-11-20T10:37:01.257Z,7484
2016-11-20T10:38:00.932Z,7364
2016-11-20T10:39:00.931Z,7244
2016-11-20T10:40:00.944Z,7216
2016-11-20T10:41:00.922Z,7256
2016-11-20T10:42:00.926Z,7420
2016-11-20T10:43:00.944Z,7636
2016-11-20T10:44:00.923Z,7804
2016-11-20T10:45:00.910Z,7900
2016-11-20T10:46:00.911Z,7924
2016-11-20T10:47:00.905Z,8040
2016-11-20T10:48:00.906Z,8192
2016-11-20T10:49:00.957Z,8276
2016-11-20T10:50:01.151Z,8216
2016-11-20T10:51:00.912Z,8156
2016-11-20T10:52:00.905Z,8020
2016-11-20T10:53:00.900Z,7900
2016-11-20T10:54:00.899Z,7800
2016-11-20T10:55:00.891Z,7748
2016-11-20T10:56:00.916Z,7676
2016-11-20T10:57:00.893Z,7644
2016-11-20T10:58:00.892Z,7588
2016-11-20T10:59:00.895Z,7500
2016-11-20T11:00:00.887Z,7460
2016-11-20T11:01:01.200Z,7472
2016-11-20T11:02:00.887Z,7464
2016-11-20T11:03:01.210Z,7408
2016-11-20T11:04:00.995Z,7392
2016-11-20T11:05:00.895Z,7328
2016-11-20T11:06:00.923Z,7160
2016-11-20T11:07:00.892Z,6956
2016-11-20T11:08:00.877Z,6796
2016-11-20T11:09:00.890Z,6728
2016-11-20T11:10:00.878Z,6728
2016-11-20T11:11:01.115Z,6688
2016-11-20T11:12:01.603Z,6648
2016-11-20T11:13:00.882Z,6628
2016-11-20T11:14:00.883Z,6628
2016-11-20T11:15:00.883Z,6664
2016-11-20T11:16:00.882Z,6616
2016-11-20T11:17:00.871Z,6548
2016-11-20T11:18:00.886Z,6480
2016-11-20T11:19:00.985Z,6364
2016-11-20T11:20:00.872Z,6264
2016-11-20T11:21:00.905Z,6216
2016-11-20T11:22:00.872Z,6152
2016-11-20T11:23:00.868Z,6112
2016-11-20T11:24:00.867Z,6116
2016-11-20T11:25:00.872Z,6116
2016-11-20T11:26:00.870Z,6056
2016-11-20T11:27:00.879Z,5960
2016-11-20T11:28:00.877Z,5888
2016-11-20T11:29:00.871Z,5804
2016-11-20T11:30:00.880Z,5676
2016-11-20T11:31:00.875Z,5568
2016-11-20T11:32:00.873Z,5492
2016-11-20T11:33:00.875Z,5400
2016-11-20T11:34:01.017Z,5348
2016-11-20T11:35:01.187Z,5296
2016-11-20T11:36:00.868Z,5288
2016-11-20T11:37:00.880Z,5272
2016-11-20T11:38:00.881Z,5272
2016-11-20T11:39:00.882Z,5244
2016-11-20T11:40:00.868Z,5244
2016-11-20T11:41:00.869Z,5216
2016-11-20T11:42:00.868Z,5192
2016-11-20T11:43:00.880Z,5176
2016-11-20T11:44:00.866Z,5144
2016-11-20T11:45:01.194Z,5180
2016-11-20T11:46:00.865Z,5184
2016-11-20T11:47:00.863Z,5180
2016-11-20T11:48:00.865Z,5164
2016-11-20T11:49:01.295Z,5148
2016-11-20T11:50:00.873Z,5132
2016-11-20T11:51:00.867Z,5108
2016-11-20T11:52:00.862Z,5116
2016-11-20T11:53:00.870Z,5028
2016-11-20T11:54:00.872Z,5084
2016-11-20T11:55:00.865Z,5016
2016-11-20T11:56:00.889Z,5068
2016-11-20T11:57:00.874Z,5024
2016-11-20T11:58:00.865Z,5004
2016-11-20T11:59:01.103Z,4988
2016-11-20T12:00:01.104Z,4984
2016-11-20T12:01:00.861Z,4960
2016-11-20T12:02:01.118Z,4944
2016-11-20T12:03:00.863Z,4932
2016-11-20T12:04:01.087Z,4932
2016-11-20T12:05:00.862Z,4928
2016-11-20T12:06:00.864Z,4912
2016-11-20T12:07:00.866Z,4892
2016-11-20T12:08:00.857Z,4888
2016-11-20T12:09:00.879Z,4876
2016-11-20T12:10:00.860Z,4864
2016-11-20T12:11:00.859Z,4876
2016-11-20T12:12:00.857Z,4852
2016-11-20T12:13:00.870Z,4836
2016-11-20T12:14:01.176Z,4840
2016-11-20T12:15:00.856Z,4844
2016-11-20T12:16:00.854Z,4852
2016-11-20T12:17:01.173Z,4860
2016-11-20T12:18:00.863Z,4868
2016-11-20T12:19:01.155Z,4876
2016-11-20T12:20:01.103Z,4880
2016-11-20T12:21:00.854Z,4892
2016-11-20T12:22:00.854Z,4912
2016-11-20T12:23:00.851Z,4916
2016-11-20T12:24:00.852Z,4924
2016-11-20T12:25:00.853Z,4932
2016-11-20T12:26:01.180Z,4936
2016-11-20T12:27:01.236Z,4916
2016-11-20T12:28:00.856Z,4836
2016-11-20T12:29:01.178Z,4856
2016-11-20T12:30:00.850Z,4832
2016-11-20T12:31:00.856Z,4824
2016-11-20T12:32:01.165Z,4904
2016-11-20T12:33:01.312Z,4800
2016-11-20T12:34:01.204Z,4524
2016-11-20T12:35:00.855Z,4696
2016-11-20T12:36:00.857Z,4632
2016-11-20T12:37:00.849Z,4432
2016-11-20T12:38:00.859Z,4648
2016-11-20T12:39:00.857Z,4744
2016-11-20T12:40:00.855Z,4840
2016-11-20T12:41:00.852Z,4848
2016-11-20T12:42:00.855Z,4856
2016-11-20T12:43:00.868Z,4824
2016-11-20T12:44:00.857Z,4764
2016-11-20T12:45:01.169Z,4800
2016-11-20T12:46:01.103Z,4860
2016-11-20T12:47:00.856Z,4868
2016-11-20T12:48:00.854Z,4864
2016-11-20T12:49:00.917Z,4836
2016-11-20T12:50:01.175Z,4764
2016-11-20T12:51:00.865Z,4516
2016-11-20T12:52:00.855Z,4364
2016-11-20T12:53:01.551Z,4440
2016-11-20T12:54:00.859Z,4380
2016-11-20T12:55:00.857Z,4376
2016-11-20T12:56:00.858Z,4560
2016-11-20T12:57:00.860Z,4568
2016-11-20T12:58:00.893Z,4576
2016-11-20T12:59:01.171Z,4700
2016-11-20T13:00:00.858Z,4700
2016-11-20T13:01:00.858Z,4664
2016-11-20T13:02:00.859Z,4656
2016-11-20T13:03:00.861Z,4576
2016-11-20T13:04:01.122Z,4532
2016-11-20T13:05:00.862Z,4556
2016-11-20T13:06:00.862Z,4548
2016-11-20T13:07:00.860Z,4552
2016-11-20T13:08:00.866Z,4536
2016-11-20T13:09:00.870Z,4504
2016-11-20T13:10:00.861Z,4480
2016-11-20T13:11:00.862Z,4452
2016-11-20T13:12:00.866Z,4396
2016-11-20T13:13:00.863Z,4352
2016-11-20T13:14:00.880Z,4216
2016-11-20T13:15:00.864Z,4164
2016-11-20T13:16:00.866Z,4116
2016-11-20T13:17:00.861Z,4128
2016-11-20T13:18:00.868Z,4080
2016-11-20T13:19:01.019Z,4116
2016-11-20T13:20:00.863Z,4048
2016-11-20T13:21:00.866Z,4056
2016-11-20T13:22:00.879Z,4108
2016-11-20T13:23:00.869Z,4080
2016-11-20T13:24:00.868Z,4044
2016-11-20T13:25:00.871Z,3992
2016-11-20T13:26:00.871Z,4000
2016-11-20T13:27:00.873Z,4036
2016-11-20T13:28:00.873Z,3940
2016-11-20T13:29:00.873Z,3916
2016-11-20T13:30:00.876Z,3920
2016-11-20T13:31:00.874Z,3836
2016-11-20T13:32:00.874Z,3800
2016-11-20T13:33:00.875Z,3696
2016-11-20T13:34:01.080Z,3672
2016-11-20T13:35:00.877Z,3644
2016-11-20T13:36:00.875Z,3644
2016-11-20T13:37:00.930Z,3608
2016-11-20T13:38:00.876Z,3604
2016-11-20T13:39:00.874Z,3580
2016-11-20T13:40:00.879Z,3508
2016-11-20T13:41:00.879Z,3456
2016-11-20T13:42:00.884Z,3436
2016-11-20T13:43:00.879Z,3444
2016-11-20T13:44:00.888Z,3420
2016-11-20T13:45:01.193Z,3400
2016-11-20T13:46:00.883Z,3388
2016-11-20T13:47:00.878Z,3380
2016-11-20T13:48:00.893Z,3364
2016-11-20T13:49:01.185Z,3344
2016-11-20T13:50:00.881Z,3312
2016-11-20T13:51:00.884Z,3268
2016-11-20T13:52:01.125Z,3228
2016-11-20T13:53:00.887Z,3176
2016-11-20T13:54:00.890Z,3152
2016-11-20T13:55:00.885Z,3108
2016-11-20T13:56:00.914Z,3064
2016-11-20T13:57:00.881Z,3012
2016-11-20T13:58:00.884Z,2952